Time;durP1;ratioP1;P1;durP2;ratioP2;P2;SDS_P1;SDS_P2;PMS_P1;PMS_P2;Temp;Humidity;BMP_temperature;BMP_pressure;BME280_temperature;BME280_humidity;BME280_pressure;Samples;Min_cycle;Max_cycle;Signal;HPM_P1;HPM_P2
2022/06/21 00:00:23;;;;;;;2.57;2.03;;;13.60;99.90;;;;;;5015752;28;20458;-56
2022/06/21 00:02:54;;;;;;;3.47;2.30;;;13.60;99.90;;;;;;5015067;28;20427;-49
2022/06/21 00:05:26;;;;;;;2.80;2.10;;;13.60;99.90;;;;;;5015416;28;20648;-55
2022/06/21 00:07:53;;;;;;;5.20;2.17;;;13.50;99.90;;;;;;5015271;28;20410;-50
2022/06/21 00:10:21;;;;;;;4.77;2.30;;;13.50;99.90;;;;;;5013246;28;20800;-52
2022/06/21 00:12:49;;;;;;;2.60;2.30;;;13.50;99.90;;;;;;5015565;28;20480;-52
2022/06/21 00:15:17;;;;;;;2.57;2.20;;;13.50;99.90;;;;;;5015110;28;20497;-56
2022/06/21 00:17:50;;;;;;;2.70;2.37;;;13.50;99.90;;;;;;5015244;28;20460;-54
2022/06/21 00:20:21;;;;;;;4.53;2.40;;;13.50;99.90;;;;;;5015563;28;20481;-54
2022/06/21 00:22:48;;;;;;;4.87;2.83;;;13.50;99.90;;;;;;5011132;28;20470;-60
2022/06/21 00:25:18;;;;;;;4.43;2.40;;;13.60;99.90;;;;;;5015739;28;20466;-51
2022/06/21 00:27:47;;;;;;;6.23;2.83;;;13.60;99.90;;;;;;5015585;28;20454;-54
2022/06/21 00:30:17;;;;;;;3.83;2.90;;;13.60;99.90;;;;;;5014527;28;20666;-59
2022/06/21 00:32:45;;;;;;;3.27;2.77;;;13.60;99.90;;;;;;5014645;28;20557;-51
2022/06/21 00:35:16;;;;;;;3.30;2.47;;;13.60;99.90;;;;;;5014505;28;20477;-53
2022/06/21 00:37:43;;;;;;;3.87;2.30;;;13.50;99.90;;;;;;5011301;28;20446;-53
2022/06/21 00:40:22;;;;;;;4.27;2.90;;;13.50;99.90;;;;;;5009346;28;20545;-56
2022/06/21 00:42:58;;;;;;;4.07;3.30;;;13.50;99.90;;;;;;5012140;28;20511;-52
2022/06/21 00:45:34;;;;;;;4.43;2.87;;;13.50;99.90;;;;;;5007431;28;20457;-53
2022/06/21 00:48:11;;;;;;;4.10;3.10;;;13.50;99.90;;;;;;5008018;28;20568;-60
2022/06/21 00:50:41;;;;;;;5.83;2.47;;;13.50;99.90;;;;;;5013613;28;20434;-61
2022/06/21 00:53:16;;;;;;;5.10;2.63;;;13.50;99.90;;;;;;5007626;28;20539;-57
2022/06/21 00:55:50;;;;;;;4.63;3.10;;;13.50;99.90;;;;;;5007351;28;20546;-60
2022/06/21 00:58:20;;;;;;;3.50;2.47;;;13.40;99.90;;;;;;5007273;28;20441;-57
2022/06/21 01:00:56;;;;;;;6.47;2.87;;;13.40;99.90;;;;;;5008810;28;20434;-61
2022/06/21 01:03:26;;;;;;;4.97;2.80;;;13.40;99.90;;;;;;5010097;28;20466;-58
2022/06/21 01:05:55;;;;;;;6.73;3.23;;;13.30;99.90;;;;;;5009119;28;20787;-57
2022/06/21 01:08:25;;;;;;;5.73;3.57;;;13.30;99.90;;;;;;5010979;28;20490;-56
2022/06/21 01:10:57;;;;;;;3.70;3.17;;;13.20;99.90;;;;;;5006862;28;20501;-58
2022/06/21 01:13:27;;;;;;;3.80;2.97;;;13.10;99.90;;;;;;5006440;28;20444;-60
2022/06/21 01:15:57;;;;;;;6.20;3.37;;;13.00;99.90;;;;;;5008412;28;20477;-42
2022/06/21 01:18:25;;;;;;;3.60;2.70;;;13.00;99.90;;;;;;5008655;28;20450;-53
2022/06/21 01:20:58;;;;;;;4.33;2.97;;;13.00;99.90;;;;;;5011383;28;20442;-56
2022/06/21 01:23:46;;;;;;;5.17;2.77;;;12.90;99.90;;;;;;5015109;28;20442;-46
2022/06/21 01:26:38;;;;;;;4.90;3.27;;;12.90;99.90;;;;;;5015298;28;20442;-54
2022/06/21 01:29:08;;;;;;;3.10;2.80;;;12.80;99.90;;;;;;5015322;28;20854;-51
2022/06/21 01:31:35;;;;;;;4.97;2.50;;;12.80;99.90;;;;;;5014962;28;20541;-45
2022/06/21 01:34:02;;;;;;;4.43;3.37;;;12.80;99.90;;;;;;5014424;28;20450;-50
2022/06/21 01:36:33;;;;;;;4.53;2.97;;;12.80;99.90;;;;;;5015263;28;20441;-63
2022/06/21 01:39:13;;;;;;;7.20;3.63;;;12.80;99.90;;;;;;5015253;28;20500;-52
2022/06/21 01:41:45;;;;;;;5.10;2.40;;;12.70;99.90;;;;;;5113858;23;20522;-48
2022/06/21 01:44:17;;;;;;;4.63;3.10;;;12.70;99.90;;;;;;5074231;28;20467;-50
2022/06/21 01:46:44;;;;;;;4.57;2.80;;;12.70;99.90;;;;;;5074666;28;20420;-42
2022/06/21 01:49:14;;;;;;;4.90;3.17;;;12.80;99.90;;;;;;5074969;28;20498;-44
2022/06/21 01:51:46;;;;;;;3.07;2.77;;;12.80;99.90;;;;;;5075449;28;20481;-47
2022/06/21 01:54:16;;;;;;;5.63;2.87;;;12.80;99.90;;;;;;5074572;28;20447;-53
2022/06/21 01:56:49;;;;;;;3.40;2.80;;;12.80;99.90;;;;;;5074075;28;20424;-50
2022/06/21 01:59:21;;;;;;;7.20;3.47;;;12.80;99.90;;;;;;5073973;28;20555;-51
2022/06/21 02:01:55;;;;;;;3.63;2.90;;;12.90;99.90;;;;;;5074150;28;20497;-53
2022/06/21 02:04:26;;;;;;;7.30;3.37;;;13.00;99.90;;;;;;5074527;28;20442;-40
2022/06/21 02:06:59;;;;;;;3.63;3.20;;;13.00;99.90;;;;;;5074822;28;20467;-50
2022/06/21 02:09:33;;;;;;;5.77;3.10;;;13.00;99.90;;;;;;5074039;28;20427;-46
2022/06/21 02:12:03;;;;;;;5.20;3.27;;;12.90;99.90;;;;;;5072635;28;20479;-48
2022/06/21 02:14:38;;;;;;;7.60;3.20;;;12.90;99.90;;;;;;5073047;28;20610;-45
2022/06/21 02:17:19;;;;;;;5.53;3.70;;;12.90;99.90;;;;;;5074689;28;20471;-49
2022/06/21 02:19:50;;;;;;;8.13;3.50;;;12.90;99.90;;;;;;5073068;28;20462;-54
2022/06/21 02:22:21;;;;;;;3.60;2.60;;;12.80;99.90;;;;;;5061805;28;20467;-53
2022/06/21 02:24:48;;;;;;;4.43;3.13;;;12.80;99.90;;;;;;5074870;28;20448;-44
2022/06/21 02:27:20;;;;;;;4.13;3.00;;;12.80;99.90;;;;;;5072894;28;20486;-51
2022/06/21 02:29:51;;;;;;;10.30;3.90;;;12.80;99.90;;;;;;5072493;28;20470;-46
2022/06/21 02:32:23;;;;;;;5.27;3.60;;;12.80;99.90;;;;;;5072553;28;20435;-49
2022/06/21 02:34:55;;;;;;;4.27;3.13;;;12.80;99.90;;;;;;5073692;28;20427;-52
2022/06/21 02:37:23;;;;;;;9.07;3.30;;;12.80;99.90;;;;;;5072399;28;20478;-52
2022/06/21 02:39:50;;;;;;;4.60;2.97;;;12.80;99.90;;;;;;5073174;28;20483;-47
2022/06/21 02:42:23;;;;;;;5.90;3.73;;;12.80;99.90;;;;;;5073896;28;20511;-44
2022/06/21 02:44:56;;;;;;;5.17;3.33;;;12.80;99.90;;;;;;5060855;28;20463;-51
2022/06/21 02:47:29;;;;;;;3.23;2.53;;;12.80;99.90;;;;;;5078038;28;20568;-49
2022/06/21 02:50:02;;;;;;;4.13;3.50;;;12.90;99.90;;;;;;5076328;28;20470;-53
2022/06/21 02:52:33;;;;;;;4.57;3.30;;;12.90;99.90;;;;;;5076190;28;20431;-52
2022/06/21 02:55:07;;;;;;;3.83;3.00;;;12.90;99.90;;;;;;5077189;28;20446;-49
2022/06/21 02:57:42;;;;;;;4.27;3.43;;;12.80;99.90;;;;;;5077742;28;20537;-53
2022/06/21 03:00:17;;;;;;;7.03;3.47;;;12.80;99.90;;;;;;5077439;28;20482;-58
2022/06/21 03:02:45;;;;;;;3.70;2.67;;;12.80;99.90;;;;;;5077572;28;20423;-50
2022/06/21 03:05:16;;;;;;;4.90;3.40;;;12.70;99.90;;;;;;5076679;28;20477;-51
2022/06/21 03:07:47;;;;;;;3.97;2.77;;;12.80;99.90;;;;;;5076145;28;20472;-42
2022/06/21 03:10:18;;;;;;;3.67;2.80;;;12.70;99.90;;;;;;5075291;28;20426;-48
2022/06/21 03:12:53;;;;;;;4.80;3.50;;;12.70;99.90;;;;;;5077279;28;20478;-49
2022/06/21 03:15:23;;;;;;;3.53;3.23;;;12.70;99.90;;;;;;5076708;28;20439;-50
2022/06/21 03:17:55;;;;;;;7.40;4.27;;;12.70;99.90;;;;;;5077122;28;20494;-50
2022/06/21 03:20:22;;;;;;;4.70;3.40;;;12.70;99.90;;;;;;5077743;28;20489;-46
2022/06/21 03:22:52;;;;;;;5.30;2.90;;;12.70;99.90;;;;;;5077089;28;20439;-46
2022/06/21 03:25:22;;;;;;;14.23;3.60;;;12.70;99.90;;;;;;5075879;28;20522;-47
2022/06/21 03:27:54;;;;;;;8.47;3.77;;;12.70;99.90;;;;;;5076275;28;20468;-50
2022/06/21 03:30:24;;;;;;;7.50;3.50;;;12.50;99.90;;;;;;5077720;28;20423;-45
2022/06/21 03:32:53;;;;;;;3.77;2.70;;;12.50;99.90;;;;;;5076572;28;20439;-48
2022/06/21 03:35:21;;;;;;;8.63;4.23;;;12.50;99.90;;;;;;5076317;28;20498;-46
2022/06/21 03:37:48;;;;;;;4.30;3.33;;;12.50;99.90;;;;;;5077265;28;20486;-39
2022/06/21 03:43:14;;;;;;;5.33;3.60;;;12.40;99.90;;;;;;5077079;28;20438;-51
2022/06/21 03:45:44;;;;;;;4.53;3.50;;;12.50;99.90;;;;;;5076715;28;20546;-53
2022/06/21 03:48:16;;;;;;;3.83;3.23;;;12.50;99.90;;;;;;5076670;28;20431;-55
2022/06/21 03:50:54;;;;;;;4.83;3.80;;;12.50;99.90;;;;;;5069813;28;20452;-59
2022/06/21 03:53:27;;;;;;;7.40;3.90;;;12.40;99.90;;;;;;5069869;28;20423;-60
2022/06/21 03:56:02;;;;;;;8.97;3.77;;;12.50;99.90;;;;;;5065830;28;20439;-52
2022/06/21 03:58:43;;;;;;;7.07;4.33;;;12.50;99.90;;;;;;5075794;28;20437;-44
2022/06/21 04:01:17;;;;;;;7.00;4.00;;;12.60;99.90;;;;;;5077336;28;20463;-58
2022/06/21 04:03:50;;;;;;;3.10;2.67;;;12.70;99.90;;;;;;5075753;28;20551;-56
2022/06/21 04:06:23;;;;;;;5.43;3.43;;;12.70;99.90;;;;;;5064848;28;20539;-51
2022/06/21 04:08:55;;;;;;;5.80;3.67;;;12.80;99.90;;;;;;5076365;28;20463;-52
2022/06/21 04:11:30;;;;;;;9.20;3.93;;;12.70;99.90;;;;;;5076493;28;20500;-43
2022/06/21 04:14:05;;;;;;;7.70;3.80;;;12.80;99.90;;;;;;5076385;28;20482;-46
2022/06/21 04:16:38;;;;;;;5.33;2.90;;;12.80;99.90;;;;;;5077005;28;20416;-56
2022/06/21 04:19:10;;;;;;;8.77;5.27;;;12.80;99.90;;;;;;5066079;28;20560;-53
2022/06/21 04:21:43;;;;;;;4.50;3.40;;;12.80;99.90;;;;;;5074497;28;20475;-43
2022/06/21 04:24:15;;;;;;;5.03;3.33;;;12.90;99.90;;;;;;5074809;28;20475;-53
2022/06/21 04:26:49;;;;;;;14.87;4.00;;;12.90;99.90;;;;;;5075623;28;20466;-45
2022/06/21 04:29:25;;;;;;;5.60;3.87;;;13.00;99.90;;;;;;5075534;28;20439;-53
2022/06/21 04:31:58;;;;;;;7.73;4.20;;;13.10;99.90;;;;;;5074069;28;20427;-55
2022/06/21 04:34:30;;;;;;;14.30;3.87;;;13.10;99.90;;;;;;5071344;28;20455;-56
2022/06/21 04:37:02;;;;;;;5.90;3.60;;;13.20;99.90;;;;;;5068368;28;20455;-38
2022/06/21 04:39:34;;;;;;;5.80;3.93;;;13.30;99.90;;;;;;5063783;28;20416;-53
2022/06/21 04:42:15;;;;;;;7.77;3.63;;;13.40;99.90;;;;;;5071870;28;20447;-47
2022/06/21 04:44:50;;;;;;;8.60;3.80;;;13.50;99.90;;;;;;5072520;28;20471;-51
2022/06/21 04:47:22;;;;;;;7.50;3.50;;;13.50;99.90;;;;;;5075114;28;20482;-50
2022/06/21 04:49:55;;;;;;;4.47;4.07;;;13.50;99.90;;;;;;5074861;28;20421;-54
2022/06/21 04:52:27;;;;;;;8.63;4.50;;;13.50;99.90;;;;;;5073695;28;20467;-45
2022/06/21 04:54:54;;;;;;;5.10;3.87;;;13.50;99.90;;;;;;5072983;28;20428;-49
2022/06/21 04:57:24;;;;;;;6.23;4.30;;;13.60;99.90;;;;;;5067307;28;20439;-52
2022/06/21 04:59:55;;;;;;;6.60;4.33;;;13.60;99.90;;;;;;5071158;28;20497;-52
2022/06/21 05:02:36;;;;;;;6.10;4.27;;;13.60;99.90;;;;;;5070728;28;20431;-50
2022/06/21 05:05:07;;;;;;;4.37;3.17;;;13.60;99.90;;;;;;5075371;28;20451;-49
2022/06/21 05:07:37;;;;;;;6.27;4.00;;;13.70;99.90;;;;;;5073635;28;20431;-56
2022/06/21 05:10:15;;;;;;;8.53;5.23;;;13.80;99.90;;;;;;5073930;28;21024;-54
2022/06/21 05:12:44;;;;;;;4.20;3.80;;;13.80;99.90;;;;;;5075181;28;20467;-52
2022/06/21 05:15:19;;;;;;;5.63;3.70;;;13.90;99.90;;;;;;5074824;28;20500;-53
2022/06/21 05:17:49;;;;;;;4.30;3.60;;;13.90;99.90;;;;;;5064030;28;20526;-46
2022/06/21 05:20:19;;;;;;;5.93;4.03;;;14.00;99.90;;;;;;5074842;28;20487;-51
2022/06/21 05:22:49;;;;;;;9.37;4.90;;;14.00;99.90;;;;;;5073727;28;20443;-46
2022/06/21 05:25:22;;;;;;;10.03;5.03;;;14.00;99.90;;;;;;5074568;28;20455;-47
2022/06/21 05:27:54;;;;;;;8.43;4.53;;;13.90;99.90;;;;;;5074723;28;20491;-53
2022/06/21 05:30:28;;;;;;;5.73;3.87;;;13.90;99.90;;;;;;5074187;28;20434;-48
2022/06/21 05:32:57;;;;;;;9.20;4.40;;;13.90;99.90;;;;;;5075476;28;20431;-48
2022/06/21 05:35:28;;;;;;;7.90;4.63;;;14.00;99.90;;;;;;5075831;28;20439;-54
2022/06/21 05:37:59;;;;;;;5.53;4.27;;;14.10;99.90;;;;;;5075124;28;20471;-53
2022/06/21 05:40:37;;;;;;;5.77;4.33;;;14.20;99.90;;;;;;5061544;28;20464;-45
2022/06/21 05:43:05;;;;;;;7.73;3.40;;;14.20;99.90;;;;;;5074639;28;20510;-50
2022/06/21 05:45:35;;;;;;;7.90;4.83;;;14.30;99.90;;;;;;5072194;28;20435;-52
2022/06/21 05:48:04;;;;;;;6.40;4.00;;;14.30;99.90;;;;;;5073731;28;20972;-47
2022/06/21 05:50:35;;;;;;;4.57;3.67;;;14.30;99.90;;;;;;5061021;28;20991;-53
2022/06/21 05:53:11;;;;;;;7.70;3.73;;;14.20;99.90;;;;;;5075290;28;20424;-53
2022/06/21 05:55:43;;;;;;;4.20;3.87;;;14.20;99.90;;;;;;5075186;28;20495;-57
2022/06/21 05:58:18;;;;;;;6.87;3.60;;;14.10;99.90;;;;;;5074915;28;20423;-54
2022/06/21 06:00:50;;;;;;;4.77;3.37;;;14.20;99.90;;;;;;5048324;28;20471;-52
2022/06/21 06:03:21;;;;;;;6.07;3.70;;;14.30;99.90;;;;;;5069663;28;20443;-48
2022/06/21 06:05:49;;;;;;;4.20;3.20;;;14.30;99.90;;;;;;5073797;28;20506;-52
2022/06/21 06:08:22;;;;;;;9.47;3.63;;;14.30;99.90;;;;;;5073536;28;20813;-49
2022/06/21 06:10:50;;;;;;;7.97;3.60;;;14.30;99.90;;;;;;5061841;28;20571;-53
2022/06/21 06:13:24;;;;;;;4.17;3.60;;;14.50;99.90;;;;;;5072902;28;20454;-43
2022/06/21 06:15:59;;;;;;;11.33;3.70;;;14.60;99.90;;;;;;5074262;28;20471;-52
2022/06/21 06:18:31;;;;;;;5.33;3.20;;;14.70;99.90;;;;;;5074433;28;20486;-48
2022/06/21 06:21:03;;;;;;;7.73;3.30;;;14.80;99.90;;;;;;5065812;28;20578;-56
2022/06/21 06:23:38;;;;;;;6.00;3.30;;;14.80;99.90;;;;;;5074692;28;20454;-48
2022/06/21 06:26:08;;;;;;;5.40;3.43;;;14.80;99.90;;;;;;5077544;28;20474;-50
2022/06/21 06:28:41;;;;;;;6.63;3.60;;;14.80;99.90;;;;;;5077198;28;20440;-50
2022/06/21 06:31:16;;;;;;;4.70;2.70;;;14.90;99.90;;;;;;5073116;28;20451;-50
2022/06/21 06:33:46;;;;;;;4.27;3.77;;;14.80;99.90;;;;;;5077268;28;20445;-52
2022/06/21 06:36:16;;;;;;;3.23;2.93;;;14.80;99.90;;;;;;5078021;28;20463;-53
2022/06/21 06:38:43;;;;;;;5.47;2.93;;;14.90;99.90;;;;;;5076018;28;20485;-44
2022/06/21 06:41:20;;;;;;;5.90;3.63;;;15.00;99.90;;;;;;5074529;28;20513;-53
2022/06/21 06:43:51;;;;;;;3.07;2.77;;;15.20;99.90;;;;;;5072043;28;20477;-47
2022/06/21 06:46:29;;;;;;;7.73;3.50;;;15.30;99.90;;;;;;5075101;28;20415;-55
2022/06/21 06:49:06;;;;;;;5.50;2.83;;;15.40;99.90;;;;;;5077858;28;20493;-46
2022/06/21 06:51:48;;;;;;;4.87;3.47;;;15.50;99.90;;;;;;5077837;28;20414;-44
2022/06/21 06:54:22;;;;;;;5.23;2.80;;;15.60;99.90;;;;;;5077751;28;20558;-45
2022/06/21 06:57:13;;;;;;;5.80;3.20;;;15.70;99.90;;;;;;5058645;28;20922;-41
2022/06/21 06:59:41;;;;;;;3.80;2.40;;;15.80;99.90;;;;;;5077855;28;20473;-48
2022/06/21 07:02:21;;;;;;;6.93;3.30;;;15.90;99.90;;;;;;5077256;28;20495;-53
2022/06/21 07:04:53;;;;;;;5.93;2.60;;;16.00;99.90;;;;;;5071646;28;20553;-56
2022/06/21 07:07:27;;;;;;;3.83;2.20;;;16.10;99.90;;;;;;5074722;28;20471;-46
2022/06/21 07:09:59;;;;;;;4.40;3.47;;;16.30;99.90;;;;;;5074463;28;20487;-44
2022/06/21 07:12:28;;;;;;;4.73;2.50;;;16.50;99.90;;;;;;5073272;28;20470;-61
2022/06/21 07:14:56;;;;;;;2.87;1.90;;;16.80;99.90;;;;;;5071892;28;20518;-44
2022/06/21 07:17:31;;;;;;;5.33;2.60;;;17.10;99.90;;;;;;5076378;28;20444;-42
2022/06/21 07:19:59;;;;;;;4.40;2.23;;;17.80;99.90;;;;;;5077893;28;20429;-50
2022/06/21 07:22:31;;;;;;;5.13;2.43;;;19.00;99.90;;;;;;5065148;28;20498;-54
2022/06/21 07:25:05;;;;;;;5.20;2.40;;;20.60;99.90;;;;;;5068529;28;20458;-56
2022/06/21 07:27:35;;;;;;;4.13;2.10;;;22.40;99.90;;;;;;5057330;28;20475;-46
2022/06/21 07:30:05;;;;;;;4.70;2.03;;;24.00;99.90;;;;;;5063222;28;20423;-51
2022/06/21 07:32:37;;;;;;;4.60;2.00;;;25.20;98.70;;;;;;5075171;28;20467;-48
2022/06/21 07:35:08;;;;;;;4.60;1.80;;;26.10;92.80;;;;;;5059800;28;20444;-51
2022/06/21 07:37:39;;;;;;;5.40;2.00;;;26.80;88.60;;;;;;5076996;28;20467;-51
2022/06/21 07:40:12;;;;;;;3.37;1.70;;;27.30;82.70;;;;;;5077593;28;20436;-49
2022/06/21 07:42:46;;;;;;;3.03;1.93;;;27.30;77.80;;;;;;5077455;28;20436;-41
2022/06/21 07:45:18;;;;;;;3.50;1.43;;;27.60;75.60;;;;;;5077542;28;20407;-55
2022/06/21 07:47:54;;;;;;;5.33;1.77;;;28.10;72.90;;;;;;5057341;28;20433;-55
2022/06/21 07:50:28;;;;;;;4.20;1.93;;;28.70;67.60;;;;;;5061225;28;20455;-53
2022/06/21 07:53:07;;;;;;;2.97;1.80;;;28.30;66.40;;;;;;5063585;28;20439;-54
2022/06/21 07:55:38;;;;;;;2.37;1.60;;;28.40;66.60;;;;;;5062264;28;20498;-60
2022/06/21 07:58:12;;;;;;;7.83;2.10;;;28.60;64.80;;;;;;5071722;28;20442;-47
2022/06/21 08:09:16;;;;;;;4.37;2.00;;;29.90;58.10;;;;;;5076961;28;20856;-46
2022/06/21 08:11:45;;;;;;;2.20;1.43;;;30.20;56.80;;;;;;5060183;28;20455;-56
2022/06/21 08:14:13;;;;;;;2.80;1.57;;;30.40;55.80;;;;;;5076331;28;20439;-50
2022/06/21 08:16:44;;;;;;;4.53;1.90;;;30.70;53.90;;;;;;5077334;28;20470;-52
2022/06/21 08:19:21;;;;;;;2.63;1.87;;;30.70;53.10;;;;;;5075190;28;20443;-60
2022/06/21 08:21:54;;;;;;;5.40;2.10;;;30.40;53.50;;;;;;5055339;28;20506;-50
2022/06/21 08:24:28;;;;;;;3.87;2.20;;;30.30;52.30;;;;;;5075770;28;20453;-47
2022/06/21 08:27:10;;;;;;;4.57;1.80;;;30.00;50.80;;;;;;5063344;28;20428;-46
2022/06/21 08:29:43;;;;;;;3.73;1.73;;;29.00;52.40;;;;;;5075258;28;20435;-46
2022/06/21 08:32:17;;;;;;;3.10;1.67;;;29.30;51.80;;;;;;5071029;28;20428;-58
2022/06/21 08:34:48;;;;;;;4.00;1.60;;;29.60;52.90;;;;;;5072729;28;20463;-57
2022/06/21 08:37:24;;;;;;;3.23;2.37;;;29.90;50.50;;;;;;5063247;28;20893;-60
2022/06/21 08:39:55;;;;;;;3.60;1.60;;;30.10;49.60;;;;;;5064979;28;20525;-58
2022/06/21 08:42:55;;;;;;;3.00;1.20;;;29.70;50.50;;;;;;5058556;28;20537;-63
2022/06/21 08:45:51;;;;;;;3.33;1.73;;;29.50;50.40;;;;;;5071472;28;20563;-52
2022/06/21 08:49:01;;;;;;;3.37;1.47;;;29.60;49.80;;;;;;5073350;28;20459;-54
2022/06/21 08:51:51;;;;;;;2.70;1.27;;;30.00;49.40;;;;;;5042572;28;20454;-53
2022/06/21 08:54:31;;;;;;;1.70;1.53;;;30.20;49.90;;;;;;5076501;28;20463;-52
2022/06/21 08:57:06;;;;;;;2.07;1.87;;;30.30;50.60;;;;;;5076526;28;20431;-49
2022/06/21 08:59:48;;;;;;;2.30;1.30;;;30.60;49.20;;;;;;5075128;28;20430;-53
2022/06/21 09:02:23;;;;;;;4.57;1.87;;;30.80;48.80;;;;;;5067407;28;20489;-59
2022/06/21 09:05:06;;;;;;;2.27;1.33;;;30.90;48.10;;;;;;5074315;28;20481;-54
2022/06/21 09:07:53;;;;;;;2.47;1.50;;;30.70;48.60;;;;;;5068518;28;20497;-48
2022/06/21 09:10:38;;;;;;;3.50;1.87;;;30.70;47.80;;;;;;5063044;28;20440;-60
2022/06/21 09:13:20;;;;;;;2.70;1.50;;;31.00;46.80;;;;;;5066442;28;20478;-61
2022/06/21 09:15:58;;;;;;;2.60;1.47;;;31.00;46.20;;;;;;5052454;28;20519;-56
2022/06/21 09:18:40;;;;;;;2.53;1.67;;;30.70;46.80;;;;;;5054529;28;20470;-59
2022/06/21 09:21:15;;;;;;;2.43;1.40;;;30.70;47.00;;;;;;5058970;28;20480;-52
2022/06/21 09:23:57;;;;;;;1.80;1.30;;;31.00;47.40;;;;;;5058339;28;20470;-57
2022/06/21 09:26:33;;;;;;;2.73;1.53;;;31.00;49.50;;;;;;5066841;28;20530;-54
2022/06/21 09:29:10;;;;;;;3.27;1.50;;;31.00;46.90;;;;;;5053917;28;20472;-58
2022/06/21 09:31:46;;;;;;;3.73;1.23;;;30.50;47.00;;;;;;5074877;28;20435;-47
2022/06/21 09:34:22;;;;;;;6.73;2.17;;;30.30;47.10;;;;;;5064395;28;20550;-57
2022/06/21 09:36:55;;;;;;;2.20;1.40;;;30.40;47.10;;;;;;5056508;28;20443;-61
2022/06/21 09:39:33;;;;;;;3.73;1.80;;;30.30;47.60;;;;;;5073690;28;20475;-46
2022/06/21 09:42:16;;;;;;;7.33;1.80;;;30.50;47.90;;;;;;5072085;28;20479;-52
2022/06/21 09:44:51;;;;;;;3.53;1.47;;;30.70;47.20;;;;;;5073982;28;20427;-51
2022/06/21 09:47:30;;;;;;;1.57;1.07;;;30.60;48.20;;;;;;5068838;28;20459;-59
2022/06/21 09:50:05;;;;;;;4.20;1.70;;;30.50;48.00;;;;;;5072382;28;20503;-61
2022/06/21 09:52:44;;;;;;;4.50;1.93;;;30.70;48.20;;;;;;5067798;28;20427;-46
2022/06/21 09:55:21;;;;;;;6.57;1.60;;;30.90;48.90;;;;;;5076922;28;20427;-57
2022/06/21 09:57:57;;;;;;;3.00;1.60;;;30.90;48.80;;;;;;5065595;28;20469;-58
2022/06/21 10:00:34;;;;;;;2.73;1.83;;;30.40;49.10;;;;;;5076936;28;20407;-57
2022/06/21 10:03:14;;;;;;;2.27;1.40;;;30.10;49.60;;;;;;5074500;28;20482;-49
2022/06/21 10:05:50;;;;;;;7.53;2.20;;;29.90;50.40;;;;;;5064672;28;20454;-48
2022/06/21 10:08:29;;;;;;;4.00;1.80;;;29.90;49.60;;;;;;5081115;28;20481;-51
2022/06/21 10:11:15;;;;;;;2.77;1.50;;;29.70;50.30;;;;;;5080752;28;20493;-49
2022/06/21 10:14:05;;;;;;;1.97;1.40;;;29.40;51.00;;;;;;5064511;28;20463;-52
2022/06/21 10:16:53;;;;;;;1.67;1.17;;;29.40;51.50;;;;;;5079197;28;20515;-53
2022/06/21 10:19:31;;;;;;;6.80;1.93;;;29.60;51.30;;;;;;5077281;28;20459;-48
2022/06/21 10:22:14;;;;;;;2.77;1.50;;;29.70;52.10;;;;;;5082722;28;20462;-44
2022/06/21 10:25:04;;;;;;;2.27;1.50;;;29.50;50.30;;;;;;5059425;28;20476;-56
2022/06/21 10:28:00;;;;;;;3.80;2.40;;;29.50;50.30;;;;;;5061808;28;20474;-48
2022/06/21 10:31:12;;;;;;;3.50;1.60;;;29.60;50.70;;;;;;5077722;28;20534;-57
2022/06/21 10:34:02;;;;;;;2.93;1.70;;;29.20;51.90;;;;;;5083058;28;20436;-56
2022/06/21 10:36:43;;;;;;;2.77;1.50;;;29.00;51.30;;;;;;5075971;28;20491;-46
2022/06/21 10:39:39;;;;;;;2.47;1.57;;;28.90;51.50;;;;;;5081112;28;20457;-48
2022/06/21 10:45:21;;;;;;;4.10;1.90;;;28.50;51.70;;;;;;5081713;28;20414;-55
2022/06/21 10:48:20;;;;;;;3.73;1.87;;;28.30;51.80;;;;;;5061299;28;20515;-46
2022/06/21 10:50:57;;;;;;;4.37;1.80;;;28.20;52.70;;;;;;5070278;28;20455;-59
2022/06/21 10:53:46;;;;;;;45.60;38.27;;;28.00;50.90;;;;;;5073841;28;20433;-56
2022/06/21 10:59:20;;;;;;;3.83;1.93;;;27.70;53.10;;;;;;5076641;28;20489;-49
2022/06/21 11:01:52;;;;;;;2.93;2.60;;;27.30;53.00;;;;;;5066639;28;20497;-53
2022/06/21 11:04:48;;;;;;;2.43;1.33;;;27.20;53.60;;;;;;5078312;28;20482;-61
2022/06/21 11:07:27;;;;;;;5.10;1.40;;;27.30;53.10;;;;;;5064911;28;20834;-61
2022/06/21 11:10:00;;;;;;;11.10;2.00;;;27.20;53.80;;;;;;5055477;28;20477;-60
2022/06/21 11:15:29;;;;;;;2.30;1.40;;;27.00;51.30;;;;;;5064693;28;20466;-52
2022/06/21 11:18:06;;;;;;;2.33;2.00;;;27.10;51.90;;;;;;5063163;28;20530;-50
2022/06/21 11:20:41;;;;;;;2.57;1.43;;;27.20;52.70;;;;;;5073788;28;20501;-63
2022/06/21 11:23:22;;;;;;;6.93;2.90;;;27.20;50.80;;;;;;5065791;28;20475;-58
2022/06/21 11:25:54;;;;;;;1.97;1.33;;;27.30;51.20;;;;;;5077901;28;20475;-59
2022/06/21 11:28:36;;;;;;;1.60;1.50;;;27.40;50.50;;;;;;5075380;28;20407;-47
2022/06/21 11:31:09;;;;;;;2.93;1.77;;;27.40;50.60;;;;;;5076921;28;20482;-51
2022/06/21 11:33:53;;;;;;;2.40;1.20;;;27.50;51.50;;;;;;5076053;28;20423;-47
2022/06/21 11:36:30;;;;;;;4.20;1.70;;;27.50;51.10;;;;;;5062038;28;20539;-60
2022/06/21 11:39:07;;;;;;;5.70;1.33;;;27.50;50.50;;;;;;5077063;28;20507;-50
2022/06/21 11:44:37;;;;;;;3.57;1.40;;;27.30;52.60;;;;;;5077284;28;20443;-49
2022/06/21 11:47:09;;;;;;;1.93;1.63;;;27.20;51.20;;;;;;5077006;28;20510;-50
2022/06/21 11:49:39;;;;;;;4.17;1.50;;;27.00;51.30;;;;;;5076857;28;20446;-51
2022/06/21 11:52:48;;;;;;;3.07;2.20;;;27.00;52.00;;;;;;5076950;28;20428;-52
2022/06/21 11:55:25;;;;;;;4.63;1.90;;;26.90;51.10;;;;;;5076635;28;20432;-45
2022/06/21 11:58:02;;;;;;;6.57;3.03;;;26.80;50.10;;;;;;5060388;28;20499;-55
2022/06/21 12:00:36;;;;;;;12.33;9.30;;;26.70;51.10;;;;;;5076917;28;20447;-54
2022/06/21 12:03:04;;;;;;;9.27;7.30;;;26.60;50.80;;;;;;5075485;28;20475;-53
2022/06/21 12:05:39;;;;;;;5.80;2.10;;;26.70;50.90;;;;;;5068625;28;20459;-60
2022/06/21 12:08:18;;;;;;;2.17;1.60;;;26.70;50.50;;;;;;5068024;28;20438;-58
2022/06/21 12:10:50;;;;;;;6.70;2.33;;;26.70;49.60;;;;;;5064304;28;20464;-55
2022/06/21 12:13:40;;;;;;;1.60;1.13;;;26.80;50.50;;;;;;5057290;28;20420;-48
2022/06/21 12:16:29;;;;;;;4.10;1.40;;;26.70;49.70;;;;;;5075702;28;20546;-53
2022/06/21 12:19:03;;;;;;;4.10;1.77;;;26.60;51.80;;;;;;5059149;28;20443;-59
2022/06/21 12:21:32;;;;;;;3.53;1.40;;;26.60;50.50;;;;;;5076088;28;20482;-50
2022/06/21 12:24:05;;;;;;;3.90;1.50;;;26.50;50.30;;;;;;5075864;28;20568;-49
2022/06/21 12:26:42;;;;;;;2.70;1.40;;;26.40;50.10;;;;;;5068219;28;20459;-57
2022/06/21 12:29:15;;;;;;;2.30;1.33;;;26.20;50.70;;;;;;5075117;28;20566;-50
2022/06/21 12:31:48;;;;;;;2.63;1.60;;;26.20;51.00;;;;;;5060198;28;20431;-45
2022/06/21 12:34:23;;;;;;;1.60;1.37;;;26.40;50.40;;;;;;5076447;28;20475;-57
2022/06/21 12:36:56;;;;;;;2.50;1.70;;;26.40;51.20;;;;;;5076637;28;20459;-54
2022/06/21 12:39:28;;;;;;;4.07;1.60;;;26.40;50.70;;;;;;5076674;28;20427;-49
2022/06/21 12:42:09;;;;;;;3.27;1.70;;;26.40;51.10;;;;;;5058515;28;20526;-60
2022/06/21 12:44:50;;;;;;;2.60;1.40;;;26.50;52.00;;;;;;5066403;28;20561;-56
2022/06/21 12:47:40;;;;;;;2.03;1.10;;;26.40;50.20;;;;;;5071619;28;20436;-48
2022/06/21 12:50:39;;;;;;;2.87;1.73;;;26.20;50.80;;;;;;5076254;28;20454;-46
2022/06/21 12:53:16;;;;;;;3.03;1.90;;;25.90;53.00;;;;;;5076811;28;20464;-52
2022/06/21 12:55:50;;;;;;;6.87;2.47;;;25.70;52.10;;;;;;5060083;28;20506;-57
2022/06/21 12:58:32;;;;;;;2.57;1.30;;;25.70;51.80;;;;;;5073592;28;20443;-56
2022/06/21 13:01:05;;;;;;;2.23;1.80;;;25.70;51.00;;;;;;5063421;28;20471;-49
2022/06/21 13:03:50;;;;;;;3.67;1.90;;;25.60;52.30;;;;;;5075733;28;20467;-52
2022/06/21 13:06:40;;;;;;;3.47;1.80;;;25.80;52.20;;;;;;5070354;28;20459;-57
2022/06/21 13:09:22;;;;;;;1.97;1.30;;;25.80;52.80;;;;;;5073931;28;20470;-50
2022/06/21 13:12:16;;;;;;;2.70;1.47;;;25.90;52.30;;;;;;5059557;28;20503;-47
2022/06/21 13:15:01;;;;;;;4.23;1.73;;;25.90;52.00;;;;;;5074556;28;20511;-55
2022/06/21 13:17:55;;;;;;;2.60;1.23;;;26.10;51.60;;;;;;5068674;28;20471;-60
2022/06/21 13:20:26;;;;;;;2.70;2.10;;;26.00;50.90;;;;;;5074443;28;20427;-54
2022/06/21 13:23:02;;;;;;;12.67;7.50;;;26.00;52.10;;;;;;5074727;28;20475;-48
2022/06/21 13:25:51;;;;;;;2.07;1.60;;;26.00;52.30;;;;;;5074222;28;20457;-58
2022/06/21 13:28:37;;;;;;;2.23;2.03;;;26.10;51.80;;;;;;5065757;28;20487;-55
2022/06/21 13:31:10;;;;;;;3.20;1.40;;;26.10;51.70;;;;;;5074290;28;20436;-48
2022/06/21 13:34:00;;;;;;;1.83;1.10;;;26.10;50.80;;;;;;5063329;28;20493;-60
2022/06/21 13:36:34;;;;;;;4.03;1.50;;;25.90;50.80;;;;;;5067674;28;20496;-55
2022/06/21 13:39:11;;;;;;;2.87;1.40;;;25.90;50.80;;;;;;5073326;28;20415;-53
2022/06/21 13:44:37;;;;;;;2.27;1.40;;;26.10;50.60;;;;;;5059383;28;20876;-57
2022/06/21 13:47:12;;;;;;;2.60;1.47;;;26.20;51.10;;;;;;5057721;28;20466;-51
2022/06/21 13:49:44;;;;;;;1.67;1.20;;;26.20;51.50;;;;;;5063331;28;20455;-59
2022/06/21 13:52:19;;;;;;;2.43;1.40;;;26.10;52.10;;;;;;5066392;28;20443;-45